Time;durP1;ratioP1;P1;durP2;ratioP2;P2;SDS_P1;SDS_P2;PMS_P1;PMS_P2;Temp;Humidity;BMP_temperature;BMP_pressure;BME280_temperature;BME280_humidity;BME280_pressure;Samples;Min_cycle;Max_cycle;Signal;HPM_P1;HPM_P2
2021/01/29 00:15:53;;;;;;;4.20;2.87;;;;;;;0.36;69.99;98483.11;1702548;79;21191;-93
2021/01/29 01:29:04;;;;;;;3.77;3.43;;;;;;;-1.30;73.49;98432.70;1703043;80;21203;-92
2021/01/29 02:04:27;;;;;;;3.20;2.90;;;;;;;-1.83;72.23;98418.48;1739969;80;21125;-94
2021/01/29 02:14:57;;;;;;;1.77;1.65;;;;;;;-1.80;72.23;98432.52;1825213;77;21116;-94
2021/01/29 02:22:40;;;;;;;2.27;1.90;;;;;;;-3.16;71.61;98209.69;1741756;78;21221;-95
2021/01/29 02:42:38;;;;;;;26.60;15.90;;;;;;;-2.00;69.79;98410.21;1701752;79;21226;-94
2021/01/29 02:45:28;;;;;;;16.37;10.60;;;;;;;-2.00;69.70;98421.50;1659581;84;21156;-92
2021/01/29 02:49:17;;;;;;;3.40;3.07;;;;;;;-2.00;69.11;98400.61;1780143;78;23143;-95
2021/01/29 02:52:18;;;;;;;1.77;1.53;;;;;;;-2.02;68.18;98406.94;1769741;79;21179;-91
2021/01/29 04:12:24;;;;;;;3.13;2.90;;;;;;;-3.10;67.15;98412.34;1712981;80;22215;-95
2021/01/29 04:15:46;;;;;;;5.37;3.27;;;;;;;-3.08;67.21;98407.80;1725797;80;21215;-89
2021/01/29 04:18:29;;;;;;;4.27;3.87;;;;;;;-3.01;67.02;98411.95;1695623;82;21570;-91
2021/01/29 04:21:15;;;;;;;4.43;3.57;;;;;;;-3.02;66.88;98410.30;1690667;83;21171;-92
2021/01/29 04:23:58;;;;;;;5.87;3.03;;;;;;;-3.00;67.08;98398.75;1601595;85;21180;-90
2021/01/29 04:26:30;;;;;;;4.33;3.00;;;;;;;-2.96;66.96;98409.70;1624639;85;21292;-90
2021/01/29 04:29:04;;;;;;;4.50;2.93;;;;;;;-2.96;66.87;98396.66;1629424;86;21346;-91
2021/01/29 04:48:10;;;;;;;4.97;4.17;;;;;;;-3.44;67.19;98394.75;1759470;76;21272;-95
2021/01/29 05:02:30;;;;;;;7.40;5.80;;;;;;;-3.81;68.50;98393.02;1727868;80;22976;-92
2021/01/29 05:06:07;;;;;;;6.63;5.97;;;;;;;-3.86;68.46;98392.66;1687753;83;21112;-92
2021/01/29 05:09:26;;;;;;;6.63;5.70;;;;;;;-3.89;68.49;98401.23;1670754;80;21186;-90
2021/01/29 05:13:02;;;;;;;8.27;5.80;;;;;;;-3.90;68.35;98418.61;1654267;81;21086;-93
2021/01/29 05:15:58;;;;;;;6.47;5.53;;;;;;;-3.88;68.75;98410.20;1656731;85;21332;-92
2021/01/29 05:18:53;;;;;;;8.07;5.40;;;;;;;-3.84;68.63;98405.04;1652702;86;21180;-92
2021/01/29 05:21:52;;;;;;;8.93;6.43;;;;;;;-3.78;68.48;98388.84;1657947;85;22278;-92
2021/01/29 05:24:50;;;;;;;9.73;6.67;;;;;;;-3.76;68.56;98386.91;1656277;85;21133;-92
2021/01/29 05:27:30;;;;;;;8.57;5.00;;;;;;;-3.72;68.42;98378.32;1656265;86;21223;-92
2021/01/29 05:30:46;;;;;;;13.10;7.17;;;;;;;-3.71;68.45;98381.28;1667147;85;21216;-93
2021/01/29 05:34:07;;;;;;;9.37;8.37;;;;;;;-3.63;68.40;98394.88;1578108;85;21843;-91
2021/01/29 05:37:16;;;;;;;12.30;9.70;;;;;;;-3.60;68.50;98382.84;1660715;86;21314;-92
2021/01/29 05:40:42;;;;;;;10.47;7.80;;;;;;;-3.57;68.46;98379.47;1681963;83;21247;-92
2021/01/29 05:43:15;;;;;;;13.83;8.93;;;;;;;-3.53;68.49;98381.30;1685304;84;21261;-92
2021/01/29 05:46:21;;;;;;;15.20;10.73;;;;;;;-3.53;68.76;98374.78;1640897;85;21260;-91
2021/01/29 05:49:23;;;;;;;9.37;7.10;;;;;;;-3.48;69.02;98360.00;1807101;77;23133;-91
2021/01/29 05:52:29;;;;;;;11.80;9.63;;;;;;;-3.53;69.39;98365.67;1706909;81;21136;-94
2021/01/29 05:55:22;;;;;;;11.93;9.65;;;;;;;-3.47;69.42;98370.28;1765922;80;21590;-89
2021/01/29 05:58:13;;;;;;;16.93;10.73;;;;;;;-3.47;69.40;98366.38;1753842;80;21148;-91
2021/01/29 06:01:22;;;;;;;10.03;8.60;;;;;;;-3.52;69.54;98357.72;1742965;80;21262;-91
2021/01/29 06:04:27;;;;;;;11.68;9.58;;;;;;;-3.51;69.72;98357.22;1696260;84;21812;-94
2021/01/29 06:07:07;;;;;;;14.13;9.27;;;;;;;-3.53;69.60;98366.48;1638155;85;21227;-91
2021/01/29 06:10:31;;;;;;;16.57;10.93;;;;;;;-3.64;69.81;98360.17;1654891;85;21184;-93
2021/01/29 06:13:44;;;;;;;16.80;11.30;;;;;;;-3.65;69.71;98346.84;1649418;85;21238;-92
2021/01/29 06:16:50;;;;;;;22.00;12.40;;;;;;;-3.68;70.09;98351.52;1645457;85;21180;-93
2021/01/29 06:19:48;;;;;;;20.00;13.77;;;;;;;-3.70;70.04;98350.35;1647404;85;21268;-93
2021/01/29 06:33:37;;;;;;;22.57;15.83;;;;;;;-3.89;71.90;98329.16;1609536;86;21201;-93
2021/01/29 06:37:19;;;;;;;19.67;14.23;;;;;;;-3.90;72.52;98335.31;1520162;90;21244;-93
2021/01/29 06:45:12;;;;;;;20.50;14.80;;;;;;;-4.04;73.87;98348.34;1568628;86;21347;-94
2021/01/29 06:48:40;;;;;;;24.03;16.97;;;;;;;-4.14;74.69;98339.28;1569535;88;21258;-93
2021/01/29 06:52:33;;;;;;;23.53;15.70;;;;;;;-4.16;74.85;98355.52;1539084;89;21196;-94
2021/01/29 06:55:56;;;;;;;20.23;14.17;;;;;;;-4.18;75.27;98361.34;1567457;86;21088;-96
2021/01/29 07:09:09;;;;;;;24.53;15.37;;;;;;;-4.06;75.90;98339.86;1589942;85;21378;-92
2021/01/29 07:16:22;;;;;;;27.90;18.37;;;;;;;-3.97;75.68;98332.48;1617782;86;20113;-93
2021/01/29 07:20:25;;;;;;;24.30;14.63;;;;;;;-3.96;75.67;98321.59;1616361;85;21234;-94
2021/01/29 07:24:06;;;;;;;22.73;16.73;;;;;;;-3.89;75.53;98325.25;1604274;86;21087;-93
2021/01/29 07:28:00;;;;;;;24.07;16.00;;;;;;;-3.75;74.66;98324.77;1587795;89;21383;-93
2021/01/29 07:31:39;;;;;;;24.60;17.50;;;;;;;-3.69;74.63;98314.25;1632672;86;21190;-91
2021/01/29 07:34:53;;;;;;;28.47;18.80;;;;;;;-3.59;74.18;98318.09;1651950;83;21105;-91
2021/01/29 07:38:46;;;;;;;29.20;20.25;;;;;;;-3.50;73.81;98304.18;1626201;86;21631;-91
2021/01/29 07:42:27;;;;;;;25.20;16.67;;;;;;;-3.47;73.87;98314.77;1639039;86;21329;-91
2021/01/29 07:45:51;;;;;;;21.70;15.70;;;;;;;-3.40;73.76;98317.13;1628930;86;21121;-91
2021/01/29 07:49:38;;;;;;;26.00;18.27;;;;;;;-3.32;73.91;98302.37;1545325;90;21243;-94
2021/01/29 07:53:23;;;;;;;28.10;16.57;;;;;;;-3.18;73.67;98298.92;1553750;91;21737;-94
2021/01/29 08:01:29;;;;;;;26.93;18.60;;;;;;;-3.03;73.24;98290.89;1507829;91;21202;-95
2021/01/29 19:52:52;;;;;;;11.77;7.80;;;;;;;-0.92;62.89;98459.25;1740187;82;21119;-93
2021/01/29 19:56:03;;;;;;;8.97;8.07;;;;;;;-0.93;63.05;98458.45;1728020;78;21148;-89
2021/01/29 19:59:49;;;;;;;10.83;9.50;;;;;;;-0.92;63.25;98460.56;1636556;82;21280;-92
2021/01/29 20:06:49;;;;;;;8.60;6.57;;;;;;;-0.90;63.48;98459.94;1668826;80;21151;-88
2021/01/29 20:10:09;;;;;;;10.72;8.23;;;;;;;-0.85;63.26;98462.41;1710545;81;21193;-92
2021/01/29 20:29:35;;;;;;;7.23;6.53;;;;;;;-0.93;63.11;98470.22;1768028;77;21168;-94
2021/01/29 20:35:47;;;;;;;;;;;;;;;-0.94;63.33;98474.30;1737666;77;21112;-96
2021/01/29 22:07:52;;;;;;;13.87;9.97;;;;;;;-0.90;63.21;98546.26;1688069;80;21161;-96
2021/01/29 22:11:20;;;;;;;13.83;10.37;;;;;;;-1.07;63.92;98539.66;1679432;81;21279;-95
2021/01/29 22:18:07;;;;;;;14.83;9.33;;;;;;;-1.23;64.20;98552.16;1689671;80;21188;-95
2021/01/29 22:21:29;;;;;;;13.60;9.77;;;;;;;-1.31;64.45;98546.90;1716868;81;21149;-96
2021/01/29 22:24:45;;;;;;;13.37;10.97;;;;;;;-1.35;64.31;98548.19;1695140;82;21189;-94
2021/01/29 22:28:13;;;;;;;16.32;10.93;;;;;;;-1.40;64.43;98543.91;1703345;78;21165;-94
2021/01/29 22:31:31;;;;;;;14.73;9.87;;;;;;;-1.45;64.52;98552.23;1716579;81;21200;-96
2021/01/29 23:18:13;;;;;;;16.07;9.83;;;;;;;-1.48;64.84;98581.28;1722969;77;21117;-94
2021/01/29 23:58:45;;;;;;;14.50;10.33;;;;;;;-2.02;65.85;98616.63;1710087;78;21156;-93
